Aérodrome :
LOGIN :

S'inscrire | Disclaimer

   EN    FR    IT 

 










Légende :    VFR   VFR Marginal   IFR   IFR Intensif   IFR Très Intensif
Visi : 
Plafond : 
>= 8 km
>= 3000ft
5 à 8 km
1000 à 3000 ft
1500m à 5 km
500 à 1000 ft
800 à 1500m
200 à 500 ft
< 800m
< 200 ft
Symboles :   Orages  Brouillard  Fortes neiges  Fortes précipitations  Vent > 20 kt
SIGMETs :   Divers  Orages  Givrage  Turbulence  Onde Orograph.  Cendres Volcan.






- Altitude de l'aérodrome : 238 ft
- Code IATA : FAB


EGLF - Farnborough

DERNIER METAR :
  • 180550Z AUTO 33007KT 9999 NCD 04/03 Q1015

METARs EXPIRÉS :
  • 180520Z AUTO 34007KT 9999 SCT035/// 04/03 Q1014
  • 180450Z AUTO 34009KT 9999 NCD 05/03 Q1014
  • 180420Z AUTO 34008KT 9999 FEW034/// 06/04 Q1014
  • 180350Z AUTO 35009KT 9999 SCT032/// 06/04 Q1014
  • 180320Z AUTO 34008KT 9999 FEW014/// BKN033/// 07/05 Q1014

TAF TAF EGLF
Valide du 18 à 06h jusqu'au 18 à 15h UTC


180454Z 1806/1815 34008KT 9999 FEW035
PROB40
TEMPO 1806/1812 BKN012
ATIS : +44 09063 800 400 (*282)



MET'MAP, la Météo Aéronautique d'un coup d'oeil ! - Copyright ORBIFLY Décembre 2007 - Disclaimer

ORBIFLY MET'MAP TEAM :

Programmation & Développement : Alexandra Zaïnal
Conception & Développement : Baudouin d'Aumeries
Co-Programmation & Développement : Marc-Olivier Méhu
Soutien technique & logistique : Manuel Goepfert

Contact : metmap@orbifly.com




SOURCES & CREDITS :

   NOAA